createdAt,value
2022-11-05T00:00:30.796Z,48.02
2022-11-05T00:02:57.127Z,48.03
2022-11-05T00:05:23.478Z,47.96
2022-11-05T00:07:51.838Z,48.06
2022-11-05T00:10:20.929Z,47.96
2022-11-05T00:12:47.532Z,48.03
2022-11-05T00:15:13.973Z,47.95
2022-11-05T00:17:40.441Z,48.03
2022-11-05T00:20:08.117Z,47.97
2022-11-05T00:22:34.582Z,48.00
2022-11-05T00:25:00.879Z,47.99
2022-11-05T00:27:28.459Z,47.86
2022-11-05T00:29:54.758Z,47.93
2022-11-05T00:32:21.121Z,47.99
2022-11-05T00:34:47.439Z,47.86
2022-11-05T00:37:13.698Z,47.93
2022-11-05T00:39:39.984Z,47.94
2022-11-05T00:42:06.304Z,47.92
2022-11-05T00:44:34.024Z,47.95
2022-11-05T00:47:00.275Z,47.70
2022-11-05T00:49:26.626Z,47.91
2022-11-05T00:51:52.910Z,47.96
2022-11-05T00:54:19.314Z,47.80
2022-11-05T00:56:45.657Z,47.87
2022-11-05T00:59:11.943Z,47.81
2022-11-05T01:01:39.638Z,47.88
2022-11-05T01:04:05.990Z,47.73
2022-11-05T01:06:32.289Z,47.66
2022-11-05T01:08:58.553Z,47.84
2022-11-05T01:11:24.838Z,47.75
2022-11-05T01:13:51.173Z,47.66
2022-11-05T01:16:17.585Z,47.82
2022-11-05T01:18:45.160Z,47.51
2022-11-05T01:21:12.314Z,47.70
2022-11-05T01:23:38.624Z,47.57
2022-11-05T01:26:05.287Z,47.64
2022-11-05T01:28:31.850Z,47.60
2022-11-05T01:30:58.249Z,47.55
2022-11-05T01:33:24.723Z,47.65
2022-11-05T01:35:52.426Z,47.54
2022-11-05T01:38:18.815Z,47.58
2022-11-05T01:40:45.328Z,47.50
2022-11-05T01:43:14.416Z,47.64
2022-11-05T01:45:41.399Z,47.65
2022-11-05T01:48:11.146Z,47.67
2022-11-05T01:50:41.308Z,47.82
2022-11-05T01:53:13.202Z,47.68
2022-11-05T01:55:41.897Z,47.35
2022-11-05T01:58:11.628Z,47.46
2022-11-05T02:00:39.659Z,47.56
2022-11-05T02:03:06.049Z,47.57
2022-11-05T02:05:32.948Z,47.60
2022-11-05T02:07:59.712Z,47.67
2022-11-05T02:10:27.664Z,47.55
2022-11-05T02:12:53.951Z,47.66
2022-11-05T02:15:24.766Z,47.62
2022-11-05T02:17:55.418Z,47.61
2022-11-05T02:20:28.090Z,47.47
2022-11-05T02:23:04.239Z,47.49
2022-11-05T02:25:45.196Z,47.65
2022-11-05T02:28:20.263Z,47.51
2022-11-05T02:30:48.537Z,47.57
2022-11-05T02:33:22.047Z,47.62
2022-11-05T02:35:57.226Z,47.66
2022-11-05T02:38:28.358Z,47.56
2022-11-05T02:41:01.662Z,47.49
2022-11-05T02:43:32.488Z,47.43
2022-11-05T02:46:03.994Z,47.60
2022-11-05T02:48:36.717Z,47.63
2022-11-05T02:51:05.611Z,47.68
2022-11-05T02:53:38.298Z,47.55
2022-11-05T02:56:09.465Z,47.68
2022-11-05T02:58:35.875Z,47.59
2022-11-05T03:01:03.446Z,47.55
2022-11-05T03:03:32.407Z,47.64
2022-11-05T03:06:08.109Z,47.57
2022-11-05T03:08:41.871Z,47.72
2022-11-05T03:11:12.913Z,48.05
2022-11-05T03:13:44.359Z,47.71
2022-11-05T03:16:15.622Z,47.91
2022-11-05T03:18:46.040Z,47.86
2022-11-05T03:21:16.719Z,47.89
2022-11-05T03:23:45.222Z,47.89
2022-11-05T03:26:14.201Z,47.65
2022-11-05T03:28:42.818Z,47.92
2022-11-05T03:31:11.350Z,47.80
2022-11-05T03:33:39.732Z,47.96
2022-11-05T03:36:08.171Z,47.83
2022-11-05T03:38:35.444Z,47.77
2022-11-05T03:41:04.808Z,47.91
2022-11-05T03:43:34.258Z,48.12
2022-11-05T03:46:02.181Z,47.85
2022-11-05T03:48:30.163Z,47.89
2022-11-05T03:51:01.022Z,47.83
2022-11-05T03:53:28.623Z,47.91
2022-11-05T03:55:59.362Z,48.04
2022-11-05T03:58:26.264Z,47.96
2022-11-05T04:00:52.746Z,48.15
2022-11-05T04:03:19.097Z,47.99
2022-11-05T04:05:45.594Z,47.85
2022-11-05T04:08:14.647Z,47.78
2022-11-05T04:10:41.151Z,47.85
2022-11-05T04:13:09.698Z,47.79
2022-11-05T04:15:36.149Z,47.86
2022-11-05T04:18:02.509Z,48.00
2022-11-05T04:20:28.832Z,48.05
2022-11-05T04:22:58.892Z,47.85
2022-11-05T04:25:26.621Z,47.93
2022-11-05T04:27:53.034Z,47.85
2022-11-05T04:30:19.590Z,47.94
2022-11-05T04:32:55.895Z,47.84
2022-11-05T04:35:22.491Z,48.00
2022-11-05T04:37:48.807Z,47.92
2022-11-05T04:40:15.149Z,48.01
2022-11-05T04:42:42.842Z,47.75
2022-11-05T04:45:09.172Z,47.92
2022-11-05T04:47:35.451Z,47.99
2022-11-05T04:50:01.783Z,47.95
2022-11-05T04:52:28.110Z,48.07
2022-11-05T04:54:54.405Z,47.98
2022-11-05T04:57:20.780Z,48.19
2022-11-05T04:59:49.149Z,48.02
2022-11-05T05:02:15.556Z,48.14
2022-11-05T05:04:41.839Z,47.94
2022-11-05T05:07:08.153Z,47.98
2022-11-05T05:09:34.468Z,47.96
2022-11-05T05:12:00.768Z,47.95
2022-11-05T05:14:27.186Z,48.08
2022-11-05T05:16:54.771Z,48.00
2022-11-05T05:19:21.048Z,48.03
2022-11-05T05:21:47.348Z,47.98
2022-11-05T05:24:14.602Z,48.08
2022-11-05T05:26:41.644Z,48.02
2022-11-05T05:29:08.751Z,48.16
2022-11-05T05:31:35.329Z,47.87
2022-11-05T05:34:03.456Z,47.92
2022-11-05T05:36:30.104Z,47.97
2022-11-05T05:38:56.398Z,48.19
2022-11-05T05:41:22.872Z,48.14
2022-11-05T05:43:49.471Z,47.99
2022-11-05T05:46:16.965Z,48.07
2022-11-05T05:48:43.293Z,48.09
2022-11-05T05:51:11.459Z,48.03
2022-11-05T05:53:38.197Z,48.14
2022-11-05T05:56:04.877Z,48.24
2022-11-05T05:58:32.107Z,48.23
2022-11-05T06:01:00.210Z,48.22
2022-11-05T06:03:26.712Z,48.27
2022-11-05T06:05:53.012Z,48.24
2022-11-05T06:08:20.587Z,48.20
2022-11-05T06:10:50.224Z,48.26
2022-11-05T06:13:16.579Z,48.35
2022-11-05T06:15:42.866Z,48.30
2022-11-05T06:18:09.300Z,48.42
2022-11-05T06:20:35.682Z,48.47
2022-11-05T06:23:02.033Z,48.36
2022-11-05T06:25:29.645Z,48.52
2022-11-05T06:27:55.918Z,48.25
2022-11-05T06:30:22.255Z,48.35
2022-11-05T06:32:48.647Z,48.45
2022-11-05T06:35:14.962Z,48.35
2022-11-05T06:37:41.699Z,48.59
2022-11-05T06:40:08.309Z,48.46
2022-11-05T06:42:35.918Z,48.72
2022-11-05T06:45:02.218Z,48.69
2022-11-05T06:47:28.525Z,48.58
2022-11-05T06:49:54.933Z,48.49
2022-11-05T06:52:21.262Z,48.61
2022-11-05T06:54:47.601Z,48.53
2022-11-05T06:57:13.928Z,48.53
2022-11-05T06:59:41.517Z,48.58
2022-11-05T07:02:10.257Z,48.76
2022-11-05T07:04:36.793Z,48.71
2022-11-05T07:07:03.099Z,48.64
2022-11-05T07:09:29.589Z,48.59
2022-11-05T07:11:55.897Z,48.50
2022-11-05T07:14:22.224Z,48.84
2022-11-05T07:16:49.758Z,48.65
2022-11-05T07:19:16.079Z,48.64
2022-11-05T07:21:42.638Z,48.63
2022-11-05T07:24:08.935Z,48.60
2022-11-05T07:26:35.270Z,48.79
2022-11-05T07:29:01.599Z,48.68
2022-11-05T07:31:27.993Z,48.79
2022-11-05T07:33:55.562Z,48.77
2022-11-05T07:36:21.954Z,48.77
2022-11-05T07:38:48.278Z,48.72
2022-11-05T07:41:14.540Z,48.83
2022-11-05T07:43:40.885Z,48.81
2022-11-05T07:46:12.650Z,48.74
2022-11-05T07:48:40.076Z,48.88
2022-11-05T07:51:07.678Z,48.69
2022-11-05T07:53:34.068Z,48.92
2022-11-05T07:56:00.367Z,48.90
2022-11-05T07:58:26.665Z,48.91
2022-11-05T08:00:53.074Z,48.76
2022-11-05T08:03:20.282Z,48.77
2022-11-05T08:05:47.207Z,48.78
2022-11-05T08:08:15.503Z,48.86
2022-11-05T08:10:41.880Z,48.88
2022-11-05T08:13:09.013Z,48.88
2022-11-05T08:15:35.763Z,48.87
2022-11-05T08:18:03.203Z,48.79
2022-11-05T08:20:29.760Z,48.81
2022-11-05T08:22:56.286Z,48.87
2022-11-05T08:25:24.208Z,48.88
2022-11-05T08:27:54.736Z,48.95
2022-11-05T08:30:21.054Z,48.83
2022-11-05T08:32:47.395Z,48.78
2022-11-05T08:35:13.648Z,48.94
2022-11-05T08:37:39.946Z,48.91
2022-11-05T08:40:06.899Z,49.04
2022-11-05T08:42:34.639Z,48.93
2022-11-05T08:45:00.932Z,49.00
2022-11-05T08:47:27.288Z,49.04
2022-11-05T08:49:53.586Z,49.05
2022-11-05T08:52:19.886Z,49.05
2022-11-05T08:54:46.214Z,48.76
2022-11-05T08:57:12.589Z,49.10
2022-11-05T08:59:40.200Z,49.05
2022-11-05T09:02:06.673Z,48.97
2022-11-05T09:04:33.060Z,48.95
2022-11-05T09:06:59.371Z,49.14
2022-11-05T09:09:25.718Z,49.14
2022-11-05T09:14:39.678Z,49.08
2022-11-05T09:17:12.423Z,48.86
2022-11-05T09:19:40.089Z,49.17
2022-11-05T09:22:06.549Z,48.94
2022-11-05T09:24:32.912Z,48.99
2022-11-05T09:26:59.243Z,49.11
2022-11-05T09:29:25.644Z,49.17
2022-11-05T09:31:53.234Z,49.18
2022-11-05T09:34:19.534Z,49.07
2022-11-05T09:36:45.825Z,49.07
2022-11-05T09:39:12.140Z,49.02
2022-11-05T09:41:39.707Z,49.13
2022-11-05T09:44:11.504Z,49.22
2022-11-05T09:46:40.908Z,49.10
2022-11-05T09:49:14.607Z,49.18
2022-11-05T09:51:41.157Z,49.16
2022-11-05T09:54:07.495Z,49.10
2022-11-05T09:56:34.830Z,49.22
2022-11-05T09:59:03.361Z,49.01
2022-11-05T10:01:31.787Z,49.16
2022-11-05T10:03:59.623Z,49.27
2022-11-05T10:06:27.519Z,49.05
2022-11-05T10:08:57.332Z,49.21
2022-11-05T10:11:25.471Z,49.27
2022-11-05T10:13:54.289Z,49.29
2022-11-05T10:16:23.341Z,49.18
2022-11-05T10:18:52.299Z,49.13
2022-11-05T10:21:37.608Z,49.06
2022-11-05T10:24:10.127Z,49.27
2022-11-05T10:26:36.423Z,49.30
2022-11-05T10:29:02.839Z,49.25
2022-11-05T10:31:35.303Z,49.15
2022-11-05T10:34:03.943Z,49.23
2022-11-05T10:36:34.118Z,49.20
2022-11-05T10:39:01.791Z,49.29
2022-11-05T10:41:32.686Z,49.10
2022-11-05T10:44:06.614Z,49.26
2022-11-05T10:46:37.573Z,49.41
2022-11-05T10:49:10.720Z,49.28
2022-11-05T10:51:37.127Z,49.23
2022-11-05T10:54:05.874Z,49.30
2022-11-05T10:56:34.909Z,49.15
2022-11-05T10:59:01.543Z,49.44
2022-11-05T11:01:28.379Z,49.32
2022-11-05T11:04:05.020Z,49.38
2022-11-05T11:06:32.350Z,49.22
2022-11-05T11:09:00.486Z,49.44
2022-11-05T11:11:29.345Z,49.48
2022-11-05T11:14:01.545Z,49.28
2022-11-05T11:16:28.723Z,49.53
2022-11-05T11:18:56.390Z,49.30
2022-11-05T11:21:23.099Z,49.29
2022-11-05T11:23:53.863Z,49.45
2022-11-05T11:26:20.311Z,49.53
2022-11-05T11:28:48.031Z,49.45
2022-11-05T11:31:16.660Z,49.40
2022-11-05T11:33:49.586Z,49.34
2022-11-05T11:36:17.903Z,49.60
2022-11-05T11:38:46.347Z,49.42
2022-11-05T11:41:21.919Z,49.52
2022-11-05T11:43:48.429Z,49.52
2022-11-05T11:46:18.134Z,49.48
2022-11-05T11:48:45.031Z,49.62
2022-11-05T11:51:16.201Z,49.63
2022-11-05T11:53:42.653Z,49.70
2022-11-05T11:56:14.731Z,49.52
2022-11-05T11:58:42.828Z,49.62
2022-11-05T12:01:17.397Z,49.79
2022-11-05T12:03:49.050Z,49.89
2022-11-05T12:06:19.478Z,49.72
2022-11-05T12:08:59.368Z,49.85
2022-11-05T12:11:34.528Z,49.74
2022-11-05T12:14:04.266Z,49.71
2022-11-05T12:16:44.129Z,49.67
2022-11-05T12:19:18.046Z,49.81
2022-11-05T12:21:53.453Z,49.76
2022-11-05T12:24:30.032Z,49.83
2022-11-05T12:27:02.388Z,49.81
2022-11-05T12:29:35.903Z,50.00
2022-11-05T12:32:17.162Z,50.07
2022-11-05T12:34:48.195Z,49.83
2022-11-05T12:37:19.953Z,49.92
2022-11-05T12:39:56.548Z,49.93
2022-11-05T12:42:28.375Z,50.02
2022-11-05T12:44:59.607Z,50.02
2022-11-05T12:47:33.216Z,50.16
2022-11-05T12:50:04.594Z,50.06
2022-11-05T12:52:42.187Z,50.02
2022-11-05T12:55:10.942Z,49.98
2022-11-05T12:57:39.438Z,49.95
2022-11-05T13:00:07.773Z,50.13
2022-11-05T13:02:36.045Z,50.02
2022-11-05T13:05:05.159Z,50.27
2022-11-05T13:07:33.170Z,50.21
2022-11-05T13:10:02.444Z,50.21
2022-11-05T13:12:31.737Z,50.29
2022-11-05T13:14:59.876Z,50.42
2022-11-05T13:17:28.809Z,50.33
2022-11-05T13:19:58.665Z,49.99
2022-11-05T13:22:33.126Z,50.39
2022-11-05T13:25:02.521Z,50.38
2022-11-05T13:27:40.234Z,50.43
2022-11-05T13:30:09.316Z,50.46
2022-11-05T13:32:38.124Z,50.42
2022-11-05T13:35:05.422Z,50.62
2022-11-05T13:37:36.116Z,50.46
2022-11-05T13:40:06.152Z,50.50
2022-11-05T13:42:40.373Z,50.46
2022-11-05T13:45:16.271Z,50.61
2022-11-05T13:47:51.049Z,50.70
2022-11-05T13:50:30.409Z,50.65
2022-11-05T13:53:09.064Z,50.69
2022-11-05T13:55:42.956Z,50.74
2022-11-05T13:58:17.156Z,50.71
2022-11-05T14:00:45.359Z,50.92
2022-11-05T14:03:16.741Z,50.69
2022-11-05T14:05:43.212Z,50.72
2022-11-05T14:08:12.575Z,50.77
2022-11-05T14:10:40.659Z,50.90
2022-11-05T14:13:16.007Z,50.86
2022-11-05T14:15:52.009Z,50.99
2022-11-05T14:18:34.058Z,50.88
2022-11-05T14:21:01.042Z,50.99
2022-11-05T14:23:36.220Z,51.06
2022-11-05T14:26:12.404Z,51.08
2022-11-05T14:28:40.353Z,51.06
2022-11-05T14:31:21.118Z,51.00
2022-11-05T14:33:54.368Z,50.98
2022-11-05T14:36:30.580Z,51.12
2022-11-05T14:39:04.242Z,51.11
2022-11-05T14:41:31.161Z,51.11
2022-11-05T14:43:59.151Z,51.04
2022-11-05T14:46:39.155Z,51.04
2022-11-05T14:49:09.613Z,51.08
2022-11-05T14:51:37.904Z,51.02
2022-11-05T14:54:08.076Z,51.33
2022-11-05T14:56:42.494Z,51.08
2022-11-05T14:59:18.841Z,51.14
2022-11-05T15:01:54.624Z,51.28
2022-11-05T15:04:26.503Z,51.18
2022-11-05T15:07:02.844Z,51.34
2022-11-05T15:09:33.599Z,51.34
2022-11-05T15:12:07.225Z,51.28
2022-11-05T15:14:36.103Z,51.29
2022-11-05T15:17:08.564Z,51.38
2022-11-05T15:19:35.313Z,51.45
2022-11-05T15:22:03.101Z,51.35
2022-11-05T15:24:31.135Z,51.40
2022-11-05T15:27:02.688Z,51.52
2022-11-05T15:29:29.738Z,51.52
2022-11-05T15:31:56.328Z,51.63
2022-11-05T15:34:23.801Z,51.54
2022-11-05T15:36:52.021Z,51.49
2022-11-05T15:39:29.710Z,51.55
2022-11-05T15:41:58.439Z,51.70
2022-11-05T15:44:27.115Z,51.70
2022-11-05T15:47:03.373Z,51.52
2022-11-05T15:49:29.729Z,51.63
2022-11-05T15:51:56.781Z,51.77
2022-11-05T15:54:30.287Z,51.65
2022-11-05T15:56:59.570Z,51.66
2022-11-05T15:59:27.068Z,51.84
2022-11-05T16:01:54.923Z,51.61
2022-11-05T16:04:22.254Z,51.76
2022-11-05T16:06:49.814Z,51.79
2022-11-05T16:09:24.516Z,51.65
2022-11-05T16:11:53.700Z,51.81
2022-11-05T16:14:21.382Z,51.95
2022-11-05T16:16:47.814Z,51.92
2022-11-05T16:19:24.052Z,51.80
2022-11-05T16:21:53.391Z,51.79
2022-11-05T16:24:26.543Z,51.82
2022-11-05T16:27:04.202Z,51.89
2022-11-05T16:29:34.147Z,51.91
2022-11-05T16:32:01.598Z,51.92
2022-11-05T16:34:36.268Z,52.09
2022-11-05T16:37:02.886Z,51.97
2022-11-05T16:39:29.204Z,52.19
2022-11-05T16:41:55.542Z,52.23
2022-11-05T16:44:21.988Z,52.18
2022-11-05T16:46:50.179Z,52.03
2022-11-05T16:49:16.811Z,52.14
2022-11-05T16:51:43.493Z,52.15
2022-11-05T16:54:10.182Z,52.14
2022-11-05T16:56:36.793Z,52.26
2022-11-05T16:59:03.186Z,52.30
2022-11-05T17:01:29.801Z,52.38
2022-11-05T17:03:57.513Z,52.39
2022-11-05T17:06:23.848Z,52.41
2022-11-05T17:08:50.116Z,52.15
2022-11-05T17:11:17.836Z,52.37
2022-11-05T17:13:44.682Z,52.38
2022-11-05T17:16:11.676Z,52.42
2022-11-05T17:18:38.245Z,52.31
2022-11-05T17:21:06.060Z,52.29
2022-11-05T17:23:32.730Z,52.41
2022-11-05T17:26:00.119Z,52.54
2022-11-05T17:28:27.312Z,52.33
2022-11-05T17:30:53.678Z,52.41
2022-11-05T17:33:20.727Z,52.54
2022-11-05T17:35:47.177Z,52.33
2022-11-05T17:38:15.052Z,52.58
2022-11-05T17:40:41.800Z,52.48
2022-11-05T17:43:08.554Z,52.47
2022-11-05T17:45:40.136Z,52.40
2022-11-05T17:48:06.419Z,52.35
2022-11-05T17:50:32.845Z,52.58
2022-11-05T17:52:59.160Z,52.48
2022-11-05T17:55:26.792Z,52.47
2022-11-05T17:57:53.162Z,52.66
2022-11-05T18:00:20.724Z,52.55
2022-11-05T18:02:47.393Z,52.59
2022-11-05T18:05:13.936Z,52.65
2022-11-05T18:07:40.805Z,52.57
2022-11-05T18:10:07.454Z,52.70
2022-11-05T18:12:35.181Z,52.78
2022-11-05T18:15:01.476Z,52.55
2022-11-05T18:17:27.984Z,52.76
2022-11-05T18:19:54.330Z,52.78
2022-11-05T18:22:20.799Z,52.72
2022-11-05T18:24:47.101Z,52.80
2022-11-05T18:27:13.423Z,52.91
2022-11-05T18:29:41.079Z,52.95
2022-11-05T18:32:07.398Z,52.77
2022-11-05T18:34:33.801Z,52.74
2022-11-05T18:37:00.341Z,52.80
2022-11-05T18:39:26.649Z,52.95
2022-11-05T18:41:52.959Z,52.91
2022-11-05T18:44:19.299Z,52.84
2022-11-05T18:47:02.154Z,52.97
2022-11-05T18:49:28.593Z,52.89
2022-11-05T18:51:54.896Z,52.86
2022-11-05T18:54:21.289Z,52.84
2022-11-05T18:56:47.612Z,52.81
2022-11-05T18:59:36.047Z,52.95
2022-11-05T19:02:03.469Z,52.91
2022-11-05T19:04:29.993Z,52.96
2022-11-05T19:07:00.192Z,52.91
2022-11-05T19:09:30.693Z,52.89
2022-11-05T19:11:56.980Z,52.99
2022-11-05T19:14:23.642Z,52.98
2022-11-05T19:16:49.995Z,52.97
2022-11-05T19:19:17.680Z,52.92
2022-11-05T19:21:43.991Z,53.13
2022-11-05T19:24:10.281Z,53.09
2022-11-05T19:26:36.823Z,52.90
2022-11-05T19:29:03.278Z,52.96
2022-11-05T19:31:30.720Z,53.04
2022-11-05T19:33:57.393Z,53.09
2022-11-05T19:36:25.455Z,53.04
2022-11-05T19:38:54.540Z,52.99
2022-11-05T19:41:20.997Z,52.84
2022-11-05T19:43:47.382Z,53.02
2022-11-05T19:46:14.659Z,53.10
2022-11-05T19:48:40.995Z,53.18
2022-11-05T19:51:08.213Z,53.18
2022-11-05T19:53:35.875Z,53.04
2022-11-05T19:56:04.218Z,53.18
2022-11-05T19:58:30.606Z,53.17
2022-11-05T20:00:56.904Z,53.19
2022-11-05T20:03:23.327Z,53.11
2022-11-05T20:05:49.632Z,53.24
2022-11-05T20:08:16.026Z,53.13
2022-11-05T20:10:43.673Z,53.26
2022-11-05T20:13:13.132Z,53.16
2022-11-05T20:15:41.887Z,53.09
2022-11-05T20:18:08.131Z,53.23
2022-11-05T20:20:34.473Z,53.27
2022-11-05T20:23:00.764Z,53.11
2022-11-05T20:25:27.090Z,53.21
2022-11-05T20:27:56.123Z,53.26
2022-11-05T20:30:22.545Z,53.10
2022-11-05T20:32:52.643Z,53.11
2022-11-05T20:35:18.956Z,53.17
2022-11-05T20:37:48.507Z,53.26
2022-11-05T20:40:19.118Z,53.28
2022-11-05T20:42:45.423Z,53.25
2022-11-05T20:45:13.120Z,53.45
2022-11-05T20:47:39.412Z,53.29
2022-11-05T20:50:06.272Z,53.19
2022-11-05T20:52:33.326Z,53.22
2022-11-05T20:54:59.657Z,53.39
2022-11-05T20:57:25.966Z,53.30
2022-11-05T20:59:52.319Z,53.23
2022-11-05T21:02:20.092Z,53.30
2022-11-05T21:04:46.488Z,53.35
2022-11-05T21:07:12.955Z,53.44
2022-11-05T21:09:39.243Z,53.38
2022-11-05T21:12:05.685Z,53.43
2022-11-05T21:14:32.047Z,53.33
2022-11-05T21:16:58.392Z,53.24
2022-11-05T21:19:25.978Z,53.32
2022-11-05T21:21:52.362Z,53.44
2022-11-05T21:24:18.670Z,53.33
2022-11-05T21:26:44.964Z,53.41
2022-11-05T21:29:11.265Z,53.35
2022-11-05T21:31:37.655Z,53.32
2022-11-05T21:34:04.414Z,53.34
2022-11-05T21:36:32.046Z,53.43
2022-11-05T21:38:58.385Z,53.47
2022-11-05T21:41:24.669Z,53.42
2022-11-05T21:43:50.984Z,53.38
2022-11-05T21:46:17.269Z,53.34
2022-11-05T21:48:43.666Z,53.37
2022-11-05T21:51:10.065Z,53.51
2022-11-05T21:53:38.549Z,53.55
2022-11-05T21:56:05.750Z,53.28
2022-11-05T21:58:32.095Z,53.41
2022-11-05T22:00:59.828Z,53.41
2022-11-05T22:03:26.159Z,53.43
2022-11-05T22:05:52.782Z,53.40
2022-11-05T22:08:19.124Z,53.55
2022-11-05T22:10:46.716Z,53.46
2022-11-05T22:13:13.007Z,53.55
2022-11-05T22:15:39.300Z,53.58
2022-11-05T22:18:05.699Z,53.60
2022-11-05T22:20:32.143Z,53.55
2022-11-05T22:22:58.599Z,53.62
2022-11-05T22:25:24.922Z,53.67
2022-11-05T22:27:52.564Z,53.64
2022-11-05T22:30:18.903Z,53.43
2022-11-05T22:32:45.220Z,53.56
2022-11-05T22:35:11.557Z,53.66
2022-11-05T22:37:37.872Z,53.30
2022-11-05T22:40:04.470Z,53.69
2022-11-05T22:42:30.803Z,53.61
2022-11-05T22:44:58.415Z,53.53
2022-11-05T22:47:24.720Z,53.55
2022-11-05T22:49:51.073Z,53.58
2022-11-05T22:52:17.475Z,53.60
2022-11-05T22:54:43.854Z,53.64
2022-11-05T22:57:10.121Z,53.69
2022-11-05T22:59:36.422Z,53.54
2022-11-05T23:02:09.233Z,53.66
2022-11-05T23:04:36.584Z,53.59
2022-11-05T23:07:02.937Z,53.69
2022-11-05T23:09:30.543Z,53.61
2022-11-05T23:11:57.026Z,53.66
2022-11-05T23:14:23.655Z,53.88
2022-11-05T23:16:49.966Z,53.64
2022-11-05T23:19:17.487Z,53.74
2022-11-05T23:21:43.782Z,53.84
2022-11-05T23:24:11.539Z,53.80
2022-11-05T23:26:39.241Z,53.61
2022-11-05T23:29:05.569Z,53.80
2022-11-05T23:31:31.851Z,53.70
2022-11-05T23:33:58.126Z,53.80
2022-11-05T23:36:25.711Z,53.81
2022-11-05T23:38:52.002Z,53.81
2022-11-05T23:41:18.296Z,53.88
2022-11-05T23:43:44.611Z,53.88
2022-11-05T23:46:10.899Z,53.72
2022-11-05T23:48:37.508Z,53.95
2022-11-05T23:51:05.334Z,53.96
2022-11-05T23:53:33.927Z,53.99
2022-11-05T23:56:00.960Z,53.98
2022-11-05T23:58:27.552Z,53.74
